Time;durP1;ratioP1;P1;durP2;ratioP2;P2;SDS_P1;SDS_P2;PMS_P1;PMS_P2;Temp;Humidity;BMP_temperature;BMP_pressure;BME280_temperature;BME280_humidity;BME280_pressure;Samples;Min_cycle;Max_cycle;Signal;HPM_P1;HPM_P2
2021/07/27 00:00:46;;;;;;;9.50;3.10;;;28.70;44.50;;;;;;5060501;28;20037;-48
2021/07/27 00:03:20;;;;;;;2.15;2.05;;;28.50;44.70;;;;;;5062412;28;20070;-45
2021/07/27 00:05:47;;;;;;;10.75;2.67;;;28.40;44.90;;;;;;5058179;28;20637;-46
2021/07/27 00:08:16;;;;;;;3.28;3.05;;;28.30;45.20;;;;;;5063171;28;20082;-50
2021/07/27 00:10:43;;;;;;;5.22;3.10;;;28.20;45.40;;;;;;5065781;28;20048;-48
2021/07/27 00:13:10;;;;;;;3.33;3.03;;;28.10;45.50;;;;;;5065882;28;20099;-42
2021/07/27 00:15:37;;;;;;;4.32;1.55;;;27.90;45.60;;;;;;5065564;28;20117;-45
2021/07/27 00:18:05;;;;;;;2.65;2.10;;;27.80;45.70;;;;;;5065851;28;20409;-46
2021/07/27 00:20:32;;;;;;;2.58;1.80;;;27.70;45.90;;;;;;5065498;28;20329;-47
2021/07/27 00:22:59;;;;;;;1.45;1.35;;;27.60;46.00;;;;;;5064436;28;20040;-50
2021/07/27 00:25:28;;;;;;;2.53;2.10;;;27.60;46.20;;;;;;5065261;28;20486;-48
2021/07/27 00:27:55;;;;;;;3.33;2.40;;;27.50;46.30;;;;;;5065606;28;20114;-43
2021/07/27 00:30:22;;;;;;;1.92;1.73;;;27.40;46.40;;;;;;5065636;28;20155;-43
2021/07/27 00:32:49;;;;;;;1.98;1.83;;;27.30;46.60;;;;;;5066795;28;20123;-44
2021/07/27 00:35:16;;;;;;;4.68;2.33;;;27.20;46.70;;;;;;5065157;28;20130;-47
2021/07/27 00:37:45;;;;;;;2.78;2.38;;;27.20;46.90;;;;;;5065259;28;20036;-45
2021/07/27 00:40:14;;;;;;;2.17;1.90;;;27.10;47.00;;;;;;5065393;28;20123;-47
2021/07/27 00:42:47;;;;;;;3.28;1.98;;;27.00;47.10;;;;;;5049879;28;20041;-42
2021/07/27 00:45:15;;;;;;;2.05;1.95;;;26.90;47.20;;;;;;5065805;28;20047;-42
2021/07/27 00:47:43;;;;;;;1.77;1.67;;;26.90;47.40;;;;;;5065521;28;20432;-43
2021/07/27 00:50:12;;;;;;;1.88;1.70;;;26.80;47.50;;;;;;5065358;28;20123;-42
2021/07/27 00:52:40;;;;;;;4.18;2.33;;;26.80;47.70;;;;;;5065908;28;20036;-42
2021/07/27 00:55:09;;;;;;;2.20;1.77;;;26.70;48.40;;;;;;5065804;28;20068;-45
2021/07/27 00:57:36;;;;;;;1.92;1.75;;;26.70;48.00;;;;;;5065625;28;20064;-43
2021/07/27 01:00:05;;;;;;;2.55;2.00;;;26.70;48.10;;;;;;5066398;28;20068;-44
2021/07/27 01:02:32;;;;;;;5.30;2.28;;;26.60;48.20;;;;;;5065771;28;20127;-44
2021/07/27 01:05:00;;;;;;;5.75;2.72;;;26.60;48.30;;;;;;5065744;28;20530;-47
2021/07/27 01:07:27;;;;;;;3.45;1.85;;;26.50;48.50;;;;;;5065350;28;20614;-46
2021/07/27 01:09:54;;;;;;;7.03;2.80;;;26.50;48.60;;;;;;5065764;28;20514;-48
2021/07/27 01:12:21;;;;;;;3.10;2.90;;;26.40;48.70;;;;;;5065555;28;20029;-46
2021/07/27 01:14:48;;;;;;;3.28;1.70;;;26.40;48.80;;;;;;5066451;28;20068;-44
2021/07/27 01:17:16;;;;;;;3.97;1.63;;;26.30;48.80;;;;;;5065519;28;20497;-46
2021/07/27 01:19:52;;;;;;;2.30;2.20;;;26.30;49.00;;;;;;5065314;28;20198;-44
2021/07/27 01:42:07;;;;;;;2.40;2.13;;;26.00;49.90;;;;;;5070212;27;20383;-43
2021/07/27 01:44:42;;;;;;;6.53;2.13;;;26.00;50.00;;;;;;5061705;28;20044;-45
2021/07/27 01:47:10;;;;;;;2.25;1.55;;;25.90;50.10;;;;;;5061539;28;20045;-42
2021/07/27 01:49:38;;;;;;;4.50;2.17;;;25.90;50.20;;;;;;5061443;28;20087;-43
2021/07/27 01:52:10;;;;;;;2.53;2.33;;;25.90;50.30;;;;;;5059974;28;20037;-46
2021/07/27 01:54:57;;;;;;;2.47;2.28;;;25.80;50.30;;;;;;5062119;28;20045;-45
2021/07/27 01:57:29;;;;;;;3.08;2.72;;;25.90;50.40;;;;;;5060438;28;20045;-43
2021/07/27 02:00:07;;;;;;;2.95;2.17;;;25.80;50.50;;;;;;5062924;28;20079;-44
2021/07/27 02:02:34;;;;;;;3.95;2.72;;;25.80;50.70;;;;;;5061534;28;20425;-42
2021/07/27 02:05:01;;;;;;;7.38;4.32;;;25.80;50.70;;;;;;5059785;28;20056;-47
2021/07/27 02:07:29;;;;;;;2.08;1.98;;;25.70;50.80;;;;;;5059637;28;20102;-43
2021/07/27 02:10:02;;;;;;;2.60;2.47;;;25.70;50.90;;;;;;5060046;28;20055;-44
2021/07/27 02:12:37;;;;;;;2.53;2.05;;;25.70;50.90;;;;;;5061030;28;20623;-44
2021/07/27 02:15:19;;;;;;;7.93;2.33;;;25.60;51.00;;;;;;5063270;28;20060;-43
2021/07/27 02:17:47;;;;;;;2.55;2.42;;;25.60;51.00;;;;;;5061490;28;20158;-43
2021/07/27 02:20:14;;;;;;;3.05;2.45;;;25.60;51.20;;;;;;5061044;28;20064;-47
2021/07/27 02:22:41;;;;;;;2.85;2.65;;;25.60;51.30;;;;;;5059703;28;20033;-43
2021/07/27 02:25:10;;;;;;;5.80;2.42;;;25.60;51.30;;;;;;5059463;28;20053;-44
2021/07/27 02:27:39;;;;;;;3.35;2.40;;;25.60;51.40;;;;;;5060417;28;20045;-43
2021/07/27 02:30:07;;;;;;;2.92;2.20;;;25.60;51.40;;;;;;5063156;28;20052;-44
2021/07/27 02:32:37;;;;;;;2.45;2.35;;;25.60;51.40;;;;;;5059284;28;20065;-46
2021/07/27 02:35:07;;;;;;;4.28;2.40;;;25.50;51.40;;;;;;5058873;28;20142;-43
2021/07/27 02:37:34;;;;;;;6.40;2.28;;;25.50;51.50;;;;;;5059029;28;20052;-43
2021/07/27 02:40:02;;;;;;;2.30;2.20;;;25.50;51.50;;;;;;5059119;28;20146;-42
2021/07/27 02:42:29;;;;;;;3.90;2.63;;;25.50;51.60;;;;;;5060362;28;20510;-47
2021/07/27 02:44:57;;;;;;;10.00;1.80;;;25.50;51.70;;;;;;5061546;28;20056;-43
2021/07/27 02:47:24;;;;;;;6.15;2.42;;;25.50;51.80;;;;;;5059074;28;20072;-44
2021/07/27 02:49:51;;;;;;;3.35;3.15;;;25.50;51.80;;;;;;5059208;28;20458;-43
2021/07/27 02:52:20;;;;;;;2.20;1.73;;;25.50;51.90;;;;;;5051799;28;20069;-43
2021/07/27 02:54:47;;;;;;;3.72;2.05;;;25.40;52.50;;;;;;5045743;28;20140;-43
2021/07/27 02:57:14;;;;;;;6.75;2.42;;;25.40;51.90;;;;;;5048559;28;20051;-43
2021/07/27 02:59:41;;;;;;;4.38;2.17;;;25.40;52.00;;;;;;5046905;28;20553;-42
2021/07/27 03:02:09;;;;;;;5.30;2.08;;;25.40;52.00;;;;;;5045281;28;20052;-43
2021/07/27 03:04:36;;;;;;;3.28;2.33;;;25.40;52.10;;;;;;5041342;28;20570;-44
2021/07/27 03:07:05;;;;;;;4.35;2.10;;;25.40;52.10;;;;;;5046956;28;20061;-48
2021/07/27 03:09:35;;;;;;;3.50;2.35;;;25.30;52.10;;;;;;5046974;28;20380;-47
2021/07/27 03:12:04;;;;;;;2.17;2.08;;;25.30;52.20;;;;;;5048989;28;20851;-47
2021/07/27 03:14:31;;;;;;;5.32;2.45;;;25.40;52.40;;;;;;5045322;28;20528;-47
2021/07/27 03:16:58;;;;;;;2.85;2.63;;;25.30;52.30;;;;;;5045508;28;20080;-48
2021/07/27 03:19:26;;;;;;;2.75;2.58;;;25.30;52.40;;;;;;5046838;28;20037;-44
2021/07/27 03:21:53;;;;;;;1.85;1.70;;;25.30;52.50;;;;;;5046998;28;20107;-47
2021/07/27 03:24:20;;;;;;;5.30;2.17;;;25.30;52.50;;;;;;5048319;28;20037;-46
2021/07/27 03:26:47;;;;;;;4.13;2.95;;;25.20;52.50;;;;;;5049231;28;20540;-48
2021/07/27 03:29:14;;;;;;;2.92;2.65;;;25.20;52.50;;;;;;5047277;28;20511;-46
2021/07/27 03:31:41;;;;;;;5.97;2.72;;;25.20;52.60;;;;;;5045208;28;20048;-43
2021/07/27 03:34:08;;;;;;;4.07;2.17;;;25.20;52.60;;;;;;5045439;28;20060;-44
2021/07/27 03:36:37;;;;;;;2.42;2.33;;;25.20;52.70;;;;;;5046238;28;20546;-47
2021/07/27 03:39:08;;;;;;;3.22;2.40;;;25.20;52.70;;;;;;5049078;28;20041;-44
2021/07/27 03:41:35;;;;;;;2.33;2.13;;;25.20;52.70;;;;;;5045720;28;20061;-44
2021/07/27 03:44:02;;;;;;;2.47;2.33;;;25.20;52.80;;;;;;5046246;28;20123;-47
2021/07/27 03:46:29;;;;;;;4.90;2.17;;;25.20;52.80;;;;;;5044978;28;20045;-44
2021/07/27 03:48:56;;;;;;;4.20;3.28;;;25.10;52.70;;;;;;5044466;28;20034;-44
2021/07/27 03:51:23;;;;;;;3.13;2.40;;;25.10;52.80;;;;;;5046891;28;20127;-47
2021/07/27 03:53:51;;;;;;;3.58;2.30;;;25.10;52.90;;;;;;5045878;28;20120;-47
2021/07/27 03:56:18;;;;;;;6.72;1.88;;;25.10;52.90;;;;;;5044051;28;20060;-46
2021/07/27 03:58:45;;;;;;;1.50;1.40;;;25.10;53.00;;;;;;5043054;28;20045;-44
2021/07/27 04:01:12;;;;;;;3.28;2.42;;;25.10;53.00;;;;;;5044065;28;20607;-45
2021/07/27 04:03:39;;;;;;;5.13;2.90;;;25.00;53.00;;;;;;5027945;28;20060;-43
2021/07/27 04:06:06;;;;;;;5.05;2.13;;;25.00;53.00;;;;;;5048320;28;20081;-44
2021/07/27 04:08:33;;;;;;;7.43;2.88;;;25.00;53.00;;;;;;5044053;28;20032;-44
2021/07/27 04:11:02;;;;;;;4.40;2.65;;;25.00;53.10;;;;;;5044004;28;20167;-48
2021/07/27 04:13:33;;;;;;;7.60;2.70;;;25.00;53.10;;;;;;5043833;28;20055;-44
2021/07/27 04:16:01;;;;;;;4.13;2.72;;;25.00;53.20;;;;;;5044335;28;20142;-43
2021/07/27 04:18:30;;;;;;;2.92;2.67;;;25.00;53.20;;;;;;5045898;28;20414;-44
2021/07/27 04:20:59;;;;;;;3.83;2.58;;;24.90;53.20;;;;;;5046380;28;20144;-44
2021/07/27 04:23:27;;;;;;;8.32;2.22;;;24.90;53.20;;;;;;5043972;28;20037;-46
2021/07/27 04:25:54;;;;;;;3.45;2.67;;;24.90;53.30;;;;;;5045601;28;20465;-43
2021/07/27 04:28:22;;;;;;;2.45;2.13;;;24.90;53.40;;;;;;5044608;28;20025;-45
2021/07/27 04:30:49;;;;;;;3.67;2.97;;;24.90;53.60;;;;;;5041504;28;20053;-44
2021/07/27 04:33:17;;;;;;;3.28;1.90;;;24.90;53.60;;;;;;5043806;28;20080;-44
2021/07/27 04:35:44;;;;;;;4.25;2.45;;;24.90;53.70;;;;;;5027504;28;20081;-50
2021/07/27 04:38:11;;;;;;;4.97;3.15;;;24.90;53.70;;;;;;5041467;28;20110;-48
2021/07/27 04:40:38;;;;;;;9.63;2.40;;;24.90;53.70;;;;;;5045683;28;20069;-48
2021/07/27 04:43:05;;;;;;;2.58;2.08;;;24.90;53.60;;;;;;5043594;28;20073;-44
2021/07/27 04:45:33;;;;;;;3.33;3.10;;;24.90;53.60;;;;;;5044896;28;20059;-43
2021/07/27 04:48:00;;;;;;;2.28;2.17;;;24.90;53.60;;;;;;5046496;28;20044;-47
2021/07/27 04:50:27;;;;;;;2.72;2.42;;;24.80;53.50;;;;;;5041122;28;20037;-48
2021/07/27 04:53:00;;;;;;;4.07;2.03;;;24.80;53.60;;;;;;5044858;28;20040;-44
2021/07/27 04:55:28;;;;;;;2.88;2.58;;;24.80;53.70;;;;;;5045181;28;20072;-49
2021/07/27 04:57:55;;;;;;;4.15;2.35;;;24.80;53.70;;;;;;5042511;28;20144;-45
2021/07/27 05:00:25;;;;;;;5.28;2.38;;;24.80;53.70;;;;;;5045089;28;20768;-47
2021/07/27 05:02:55;;;;;;;8.50;2.78;;;24.80;53.80;;;;;;5045112;28;20048;-46
2021/07/27 05:05:22;;;;;;;10.85;2.63;;;24.80;53.80;;;;;;5035619;28;20041;-49
2021/07/27 05:07:49;;;;;;;3.38;3.08;;;24.80;53.80;;;;;;5036247;28;20048;-51
2021/07/27 05:10:17;;;;;;;5.82;2.17;;;24.80;53.90;;;;;;5044555;28;20125;-44
2021/07/27 05:12:44;;;;;;;3.40;1.52;;;24.70;53.90;;;;;;5030135;28;20052;-45
2021/07/27 05:15:12;;;;;;;5.25;2.35;;;24.70;54.00;;;;;;5046529;28;20133;-43
2021/07/27 05:17:39;;;;;;;5.30;2.78;;;24.70;54.10;;;;;;5043785;28;20110;-44
2021/07/27 05:20:09;;;;;;;4.75;2.20;;;24.70;54.10;;;;;;5044509;28;20136;-45
2021/07/27 05:22:36;;;;;;;3.85;2.20;;;24.70;54.10;;;;;;5044831;28;20048;-46
2021/07/27 05:25:04;;;;;;;5.60;2.83;;;24.70;54.00;;;;;;5045719;28;20037;-45
2021/07/27 05:27:33;;;;;;;3.28;1.90;;;24.70;54.00;;;;;;5043918;28;20076;-45
2021/07/27 05:30:01;;;;;;;3.85;2.78;;;24.70;54.00;;;;;;5045928;28;20049;-45
2021/07/27 05:32:28;;;;;;;3.50;2.15;;;24.70;54.00;;;;;;5042904;28;20044;-45
2021/07/27 05:34:55;;;;;;;4.40;3.17;;;24.70;54.00;;;;;;5044189;28;20449;-45
2021/07/27 05:37:23;;;;;;;11.18;3.10;;;24.70;54.00;;;;;;5044712;28;20532;-45
2021/07/27 05:39:51;;;;;;;5.18;2.42;;;24.70;53.90;;;;;;5045027;28;20053;-48
2021/07/27 05:42:18;;;;;;;8.57;3.03;;;24.70;53.90;;;;;;5043922;28;20041;-50
2021/07/27 05:44:45;;;;;;;3.10;2.35;;;24.70;53.90;;;;;;5041202;28;20160;-46
2021/07/27 05:47:12;;;;;;;3.03;2.47;;;24.70;53.90;;;;;;5039799;28;20076;-47
2021/07/27 05:49:39;;;;;;;2.03;1.88;;;24.60;53.90;;;;;;5042457;28;20037;-46
2021/07/27 05:52:11;;;;;;;2.25;2.05;;;24.60;53.90;;;;;;5042979;28;20107;-45
2021/07/27 05:54:39;;;;;;;2.95;2.17;;;24.60;54.00;;;;;;5044619;28;20114;-45
2021/07/27 05:57:10;;;;;;;3.10;1.92;;;24.60;54.00;;;;;;5046333;28;20091;-45
2021/07/27 05:59:38;;;;;;;4.35;3.42;;;24.60;54.00;;;;;;5043678;28;20094;-44
2021/07/27 06:02:05;;;;;;;3.30;2.60;;;24.60;54.10;;;;;;5042900;28;20045;-45
2021/07/27 06:04:32;;;;;;;3.28;2.75;;;24.60;54.20;;;;;;5043845;28;20587;-56
2021/07/27 06:06:59;;;;;;;6.80;2.70;;;24.60;54.30;;;;;;5045597;28;20037;-62
2021/07/27 06:09:26;;;;;;;7.55;2.85;;;24.70;54.60;;;;;;5045363;28;20423;-59
2021/07/27 06:11:54;;;;;;;2.25;2.10;;;24.60;54.40;;;;;;5043781;28;20044;-59
2021/07/27 06:14:21;;;;;;;5.03;1.85;;;24.70;54.40;;;;;;5045490;28;20084;-58
2021/07/27 06:16:48;;;;;;;6.45;3.08;;;24.70;54.40;;;;;;5041455;28;20041;-58
2021/07/27 06:19:15;;;;;;;3.25;1.88;;;24.70;54.40;;;;;;5044881;28;20053;-57
2021/07/27 06:21:43;;;;;;;5.43;2.55;;;24.70;54.30;;;;;;5044676;28;20506;-57
2021/07/27 06:24:11;;;;;;;3.58;2.05;;;24.80;54.30;;;;;;5045454;28;20041;-54
2021/07/27 06:26:39;;;;;;;12.65;2.70;;;24.80;54.20;;;;;;5042303;28;20577;-59
2021/07/27 06:29:08;;;;;;;2.60;2.40;;;24.80;54.40;;;;;;5047071;28;20053;-62
2021/07/27 06:31:36;;;;;;;2.80;2.70;;;24.80;54.30;;;;;;5047908;28;20135;-60
2021/07/27 06:34:04;;;;;;;3.85;2.50;;;24.80;54.30;;;;;;5047554;28;20522;-69
2021/07/27 06:36:31;;;;;;;4.05;2.00;;;24.80;54.20;;;;;;5048643;28;20069;-69
2021/07/27 06:38:58;;;;;;;9.02;3.03;;;24.90;54.10;;;;;;5049576;28;20045;-70
2021/07/27 06:41:26;;;;;;;4.07;2.80;;;24.80;53.90;;;;;;5046799;28;20132;-69
2021/07/27 06:43:53;;;;;;;2.53;2.33;;;24.80;53.80;;;;;;5047101;28;20132;-68
2021/07/27 06:46:21;;;;;;;2.65;2.45;;;24.90;53.80;;;;;;5050140;28;20044;-68
2021/07/27 06:48:49;;;;;;;2.38;1.75;;;24.80;54.00;;;;;;5046520;28;20048;-69
2021/07/27 06:51:18;;;;;;;11.05;3.08;;;24.80;54.20;;;;;;5048148;28;20165;-51
2021/07/27 06:53:45;;;;;;;6.47;2.03;;;24.80;54.50;;;;;;5049612;28;20455;-56
2021/07/27 06:56:13;;;;;;;7.43;3.65;;;24.80;54.50;;;;;;5047537;28;20106;-55
2021/07/27 06:58:41;;;;;;;10.07;2.28;;;24.90;54.80;;;;;;5047479;28;20036;-57
2021/07/27 07:01:09;;;;;;;4.88;2.92;;;24.90;55.50;;;;;;5046480;28;20085;-58
2021/07/27 07:03:40;;;;;;;4.45;2.75;;;24.90;55.90;;;;;;5046915;28;20446;-58
2021/07/27 07:06:07;;;;;;;7.13;2.25;;;24.90;56.00;;;;;;5050195;28;20049;-58
2021/07/27 07:08:34;;;;;;;6.93;2.08;;;24.90;56.20;;;;;;5048252;28;20037;-58
2021/07/27 07:11:03;;;;;;;2.38;2.08;;;25.00;56.30;;;;;;5046206;28;20132;-58
2021/07/27 07:13:31;;;;;;;8.52;2.88;;;25.10;56.40;;;;;;5047145;28;20069;-56
2021/07/27 07:15:59;;;;;;;3.55;2.15;;;25.10;56.30;;;;;;5047596;28;20104;-58
2021/07/27 07:18:27;;;;;;;5.20;1.90;;;25.20;56.40;;;;;;5047079;28;20060;-58
2021/07/27 07:20:55;;;;;;;6.28;2.50;;;25.20;56.40;;;;;;5049515;28;20072;-57
2021/07/27 07:23:23;;;;;;;4.70;2.50;;;25.20;56.30;;;;;;5045689;28;20517;-58
2021/07/27 07:25:50;;;;;;;3.22;1.88;;;25.30;56.30;;;;;;5045412;28;20053;-58
2021/07/27 07:28:19;;;;;;;5.68;1.63;;;25.30;56.30;;;;;;5046975;28;20040;-58
2021/07/27 07:30:47;;;;;;;2.45;1.83;;;25.30;56.80;;;;;;5046516;28;20603;-58
2021/07/27 07:33:14;;;;;;;2.28;1.65;;;25.40;56.30;;;;;;5045600;28;20045;-56
2021/07/27 07:35:42;;;;;;;2.90;2.20;;;25.40;56.20;;;;;;5046643;28;20057;-58
2021/07/27 07:38:10;;;;;;;2.00;1.83;;;25.50;56.20;;;;;;5046864;28;20049;-58
2021/07/27 07:40:37;;;;;;;2.63;2.00;;;25.50;56.00;;;;;;5045991;28;20045;-58
2021/07/27 07:43:05;;;;;;;4.70;1.52;;;25.60;56.00;;;;;;5046389;28;20739;-58
2021/07/27 07:45:32;;;;;;;1.58;1.33;;;25.60;55.90;;;;;;5046481;28;20146;-58
2021/07/27 07:47:59;;;;;;;1.77;1.60;;;25.60;55.80;;;;;;5049443;28;20044;-59
2021/07/27 07:50:29;;;;;;;2.15;1.80;;;25.60;55.70;;;;;;5046761;28;20052;-56
2021/07/27 07:53:00;;;;;;;2.80;2.08;;;25.70;55.70;;;;;;5044728;28;20106;-57
2021/07/27 07:55:29;;;;;;;2.80;2.45;;;25.70;55.50;;;;;;5045257;28;20079;-57
2021/07/27 07:57:57;;;;;;;2.05;1.17;;;25.70;55.50;;;;;;5045401;28;20046;-56
2021/07/27 08:00:24;;;;;;;1.27;1.17;;;25.80;55.40;;;;;;5047339;28;20056;-57
2021/07/27 08:02:52;;;;;;;1.88;1.67;;;25.80;55.30;;;;;;5046565;28;20057;-59
2021/07/27 08:05:19;;;;;;;2.78;2.08;;;25.80;55.20;;;;;;5045257;28;20403;-59
2021/07/27 08:07:47;;;;;;;1.55;1.45;;;25.80;55.20;;;;;;5044468;28;20135;-57
2021/07/27 08:10:15;;;;;;;1.80;1.70;;;25.90;55.10;;;;;;5047757;28;20521;-59
2021/07/27 08:12:46;;;;;;;3.33;1.58;;;25.90;55.00;;;;;;5031494;28;20033;-59
2021/07/27 08:15:14;;;;;;;3.65;1.50;;;25.90;55.00;;;;;;5044649;28;20056;-59
2021/07/27 08:17:41;;;;;;;1.98;1.88;;;26.00;55.00;;;;;;5044984;28;20055;-57
2021/07/27 08:20:09;;;;;;;1.38;1.27;;;26.00;54.90;;;;;;5044366;28;20103;-58
2021/07/27 08:22:38;;;;;;;1.55;1.45;;;26.00;54.80;;;;;;5044525;28;20135;-59
2021/07/27 08:25:06;;;;;;;1.40;1.30;;;26.00;54.70;;;;;;5047264;28;20036;-58
2021/07/27 08:27:34;;;;;;;2.20;1.20;;;26.00;54.70;;;;;;5046485;28;20072;-59
2021/07/27 08:30:03;;;;;;;2.95;1.25;;;26.10;54.60;;;;;;5048628;28;20053;-58
2021/07/27 08:32:30;;;;;;;1.40;1.30;;;26.10;54.60;;;;;;5044281;28;20045;-59
2021/07/27 08:34:57;;;;;;;2.78;1.67;;;26.10;54.50;;;;;;5044463;28;20128;-60
2021/07/27 08:37:25;;;;;;;1.73;1.50;;;26.10;54.50;;;;;;5044024;28;20111;-56
2021/07/27 08:39:57;;;;;;;2.15;0.95;;;26.10;54.40;;;;;;5044207;28;20533;-57
2021/07/27 08:42:25;;;;;;;3.38;1.23;;;26.10;54.30;;;;;;5046182;28;20098;-59
2021/07/27 08:44:53;;;;;;;1.30;1.20;;;26.10;54.30;;;;;;5045645;28;20048;-59
2021/07/27 08:47:22;;;;;;;3.67;1.83;;;26.20;54.30;;;;;;5044105;28;20041;-59
2021/07/27 08:49:49;;;;;;;1.65;1.48;;;26.20;54.30;;;;;;5046330;28;20045;-58
2021/07/27 08:52:16;;;;;;;1.35;1.35;;;26.20;54.20;;;;;;5043819;28;20418;-58
2021/07/27 08:54:44;;;;;;;1.65;1.50;;;26.20;54.20;;;;;;5045874;28;20107;-58
2021/07/27 08:57:14;;;;;;;1.23;1.13;;;26.20;54.10;;;;;;5048310;28;20143;-58
2021/07/27 08:59:42;;;;;;;1.52;1.00;;;26.20;54.10;;;;;;5044829;28;20063;-58
2021/07/27 09:02:09;;;;;;;4.00;1.33;;;26.30;54.10;;;;;;5039525;28;20037;-58
2021/07/27 09:04:38;;;;;;;1.95;1.73;;;26.30;54.10;;;;;;5045648;28;20093;-58
2021/07/27 09:07:07;;;;;;;2.72;1.08;;;26.30;54.00;;;;;;5039978;28;20033;-59
2021/07/27 09:09:35;;;;;;;3.85;1.85;;;26.30;54.00;;;;;;5044836;28;20049;-59
2021/07/27 09:12:06;;;;;;;8.98;1.38;;;26.30;54.00;;;;;;5047375;28;20049;-59
2021/07/27 09:14:34;;;;;;;2.47;1.38;;;26.30;53.90;;;;;;5043496;28;20052;-59
2021/07/27 09:17:01;;;;;;;2.05;1.38;;;26.30;53.90;;;;;;5043723;28;20124;-58
2021/07/27 09:19:40;;;;;;;1.10;0.93;;;26.30;53.90;;;;;;5042967;28;20056;-59
2021/07/27 09:22:07;;;;;;;3.08;1.33;;;26.40;53.90;;;;;;5046300;28;20486;-59
2021/07/27 09:24:34;;;;;;;2.10;0.93;;;26.40;53.90;;;;;;5044853;28;20063;-59
2021/07/27 09:27:05;;;;;;;1.75;1.60;;;26.40;53.90;;;;;;5046545;28;20465;-59
2021/07/27 09:29:42;;;;;;;1.63;1.50;;;26.40;53.80;;;;;;5043794;28;20139;-59
2021/07/27 09:32:16;;;;;;;1.38;1.35;;;26.40;53.80;;;;;;5043865;28;20122;-59
2021/07/27 09:34:45;;;;;;;1.63;1.45;;;26.50;53.90;;;;;;5043614;28;20195;-57
2021/07/27 09:37:13;;;;;;;5.90;1.23;;;26.40;53.80;;;;;;5043518;28;20036;-59
2021/07/27 09:39:41;;;;;;;1.50;1.30;;;26.40;53.80;;;;;;5044393;28;20116;-58
2021/07/27 09:42:09;;;;;;;1.58;1.55;;;26.50;53.80;;;;;;5043263;28;20037;-55
2021/07/27 09:44:37;;;;;;;2.83;1.75;;;26.50;53.80;;;;;;5042679;28;20667;-58
2021/07/27 09:47:05;;;;;;;1.80;0.95;;;26.40;53.70;;;;;;5043238;28;20103;-56
2021/07/27 09:49:33;;;;;;;4.63;1.52;;;26.50;53.70;;;;;;5043370;28;20056;-56
2021/07/27 09:52:01;;;;;;;2.97;1.48;;;26.50;53.70;;;;;;5043434;28;20448;-58
2021/07/27 09:54:28;;;;;;;1.63;1.08;;;26.50;53.60;;;;;;5045144;28;20132;-57
2021/07/27 09:56:57;;;;;;;4.47;1.98;;;26.50;53.60;;;;;;5045729;28;20048;-58
2021/07/27 09:59:26;;;;;;;1.30;0.90;;;26.50;53.60;;;;;;5043773;28;20538;-58
2021/07/27 10:01:57;;;;;;;1.95;1.30;;;26.60;53.60;;;;;;5043528;28;20155;-59
2021/07/27 10:04:26;;;;;;;1.52;1.42;;;26.60;53.60;;;;;;5049017;28;20045;-56
2021/07/27 10:06:54;;;;;;;1.73;1.73;;;26.60;53.60;;;;;;5049131;28;20536;-59
2021/07/27 10:09:27;;;;;;;3.13;1.27;;;26.60;53.60;;;;;;5049333;28;20573;-58
2021/07/27 10:12:05;;;;;;;1.52;1.35;;;26.60;53.50;;;;;;5049213;28;20053;-58
2021/07/27 10:14:40;;;;;;;2.25;1.05;;;26.60;53.50;;;;;;5048468;28;20049;-59
2021/07/27 10:17:08;;;;;;;1.65;1.33;;;26.60;53.50;;;;;;5048421;28;20141;-59
2021/07/27 10:19:40;;;;;;;1.52;1.35;;;26.60;53.50;;;;;;5047229;28;20052;-59
2021/07/27 10:22:09;;;;;;;1.30;1.20;;;26.60;53.50;;;;;;5048940;28;20047;-59
2021/07/27 10:24:40;;;;;;;1.13;1.02;;;26.60;53.40;;;;;;5047641;28;20056;-59
2021/07/27 10:27:10;;;;;;;1.35;1.25;;;26.60;53.40;;;;;;5046562;28;20128;-59
2021/07/27 10:29:37;;;;;;;1.30;1.23;;;26.70;53.50;;;;;;5048457;28;20041;-59
2021/07/27 10:32:15;;;;;;;2.22;1.40;;;26.70;53.40;;;;;;5049304;28;20049;-58
2021/07/27 10:34:43;;;;;;;4.15;1.17;;;26.70;53.40;;;;;;5080519;28;20530;-61
2021/07/27 10:37:12;;;;;;;1.65;1.40;;;26.70;53.40;;;;;;5046829;28;20051;-59
2021/07/27 10:39:55;;;;;;;1.85;1.00;;;26.70;53.40;;;;;;5046494;28;20045;-59
2021/07/27 10:42:24;;;;;;;0.93;0.93;;;26.70;53.30;;;;;;5046740;28;20049;-57
2021/07/27 10:44:52;;;;;;;1.40;0.77;;;26.70;53.40;;;;;;5048262;28;20055;-58
2021/07/27 10:47:20;;;;;;;0.88;0.88;;;26.70;53.40;;;;;;5048375;28;20729;-57
2021/07/27 10:49:58;;;;;;;2.28;1.73;;;26.70;53.40;;;;;;5049017;28;20044;-58
2021/07/27 10:52:26;;;;;;;1.98;1.38;;;26.70;53.40;;;;;;5046246;28;20123;-58
2021/07/27 10:54:58;;;;;;;2.50;1.48;;;26.70;53.40;;;;;;5046395;28;20121;-57
2021/07/27 10:57:35;;;;;;;1.20;1.20;;;26.70;53.40;;;;;;5049057;28;20430;-58
2021/07/27 11:00:03;;;;;;;2.08;1.23;;;26.70;53.40;;;;;;5050822;28;20059;-58
2021/07/27 11:02:30;;;;;;;2.08;1.98;;;26.70;53.40;;;;;;5045330;28;20041;-59
2021/07/27 11:04:57;;;;;;;1.58;1.38;;;26.70;53.40;;;;;;5048891;28;20736;-58
2021/07/27 11:07:25;;;;;;;1.42;1.23;;;26.80;53.40;;;;;;5048843;28;20057;-58
2021/07/27 11:09:53;;;;;;;1.80;1.70;;;26.80;53.40;;;;;;5046681;28;20045;-57
2021/07/27 11:12:28;;;;;;;2.38;1.25;;;26.80;53.40;;;;;;5048057;28;20115;-59
2021/07/27 11:15:08;;;;;;;1.08;1.08;;;26.80;53.30;;;;;;5048538;28;20064;-58
2021/07/27 11:17:36;;;;;;;2.25;2.05;;;26.80;53.40;;;;;;5047692;28;20545;-58
2021/07/27 11:20:04;;;;;;;1.20;1.05;;;26.70;53.30;;;;;;5046452;28;20043;-58
2021/07/27 11:22:32;;;;;;;1.35;1.25;;;26.80;53.40;;;;;;5046221;28;20072;-59
2021/07/27 11:24:59;;;;;;;0.98;0.80;;;26.80;53.30;;;;;;5047882;28;20045;-59
2021/07/27 11:27:31;;;;;;;0.70;0.65;;;26.80;53.40;;;;;;5048947;28;20049;-59
2021/07/27 11:29:59;;;;;;;0.80;0.60;;;26.80;53.30;;;;;;5049373;28;20053;-61
2021/07/27 11:32:37;;;;;;;1.90;0.98;;;26.80;53.30;;;;;;5045102;28;20131;-59
2021/07/27 11:35:05;;;;;;;1.52;1.42;;;26.90;53.30;;;;;;5047721;28;20041;-58
2021/07/27 11:37:32;;;;;;;1.20;1.15;;;26.80;53.30;;;;;;5045715;28;20043;-59
2021/07/27 11:40:00;;;;;;;2.30;1.67;;;26.80;53.30;;;;;;5046334;28;20053;-58
2021/07/27 11:42:33;;;;;;;2.63;0.93;;;26.80;53.30;;;;;;5048033;28;20049;-58
2021/07/27 11:45:01;;;;;;;1.48;1.38;;;26.80;53.20;;;;;;5048424;28;20103;-59
2021/07/27 11:47:41;;;;;;;1.65;0.80;;;26.90;53.30;;;;;;5048202;28;20453;-57
2021/07/27 11:50:13;;;;;;;1.27;0.98;;;26.90;53.20;;;;;;5045026;28;20136;-58
2021/07/27 11:52:41;;;;;;;1.83;1.63;;;26.90;53.30;;;;;;5044738;28;20032;-59
2021/07/27 11:55:11;;;;;;;2.00;1.48;;;26.80;53.20;;;;;;5043836;28;20045;-58
2021/07/27 11:57:51;;;;;;;0.93;0.68;;;26.80;53.20;;;;;;5048097;28;20052;-58
2021/07/27 12:00:19;;;;;;;2.85;1.60;;;26.90;53.20;;;;;;5046128;28;20549;-57
2021/07/27 12:02:46;;;;;;;1.10;1.10;;;26.80;53.20;;;;;;5046488;28;20135;-59
2021/07/27 12:05:13;;;;;;;1.00;1.00;;;26.90;53.30;;;;;;5045364;28;20059;-58
2021/07/27 12:07:41;;;;;;;1.20;1.20;;;26.90;53.30;;;;;;5047462;28;20553;-58
2021/07/27 12:10:09;;;;;;;1.60;1.50;;;26.90;53.30;;;;;;5047199;28;20048;-58
2021/07/27 12:12:37;;;;;;;2.67;1.20;;;26.90;53.30;;;;;;5046904;28;20033;-59
2021/07/27 12:15:07;;;;;;;1.38;1.27;;;26.90;53.30;;;;;;5049519;28;20565;-58
2021/07/27 12:17:35;;;;;;;1.45;1.00;;;26.90;53.30;;;;;;5046187;28;20069;-57
2021/07/27 12:20:02;;;;;;;0.82;0.82;;;26.90;53.30;;;;;;5044444;28;20114;-58
2021/07/27 12:22:29;;;;;;;1.25;1.15;;;26.90;53.30;;;;;;5044030;28;20052;-58
2021/07/27 12:24:56;;;;;;;2.83;1.92;;;26.90;53.30;;;;;;5043952;28;20041;-58
2021/07/27 12:27:23;;;;;;;1.42;1.33;;;26.90;53.30;;;;;;5046976;28;20045;-58
2021/07/27 12:29:50;;;;;;;3.00;1.95;;;26.90;53.30;;;;;;5046319;28;20052;-59
2021/07/27 12:32:19;;;;;;;0.60;0.60;;;26.90;53.30;;;;;;5043638;28;20080;-59
2021/07/27 12:34:47;;;;;;;1.10;1.02;;;26.90;53.30;;;;;;5044441;28;20057;-58
2021/07/27 12:37:14;;;;;;;1.13;1.13;;;26.90;53.30;;;;;;5044358;28;20045;-58
2021/07/27 12:39:41;;;;;;;0.93;0.88;;;26.90;53.30;;;;;;5028959;28;20044;-58
2021/07/27 12:42:08;;;;;;;1.23;1.15;;;26.90;53.30;;;;;;5044535;28;20047;-58
2021/07/27 12:44:36;;;;;;;1.30;1.20;;;26.90;53.30;;;;;;5043913;28;20462;-58
2021/07/27 12:47:04;;;;;;;1.27;1.02;;;26.90;53.30;;;;;;5044452;28;20052;-59
2021/07/27 12:49:32;;;;;;;1.35;1.25;;;26.90;53.30;;;;;;5044637;28;20045;-59
2021/07/27 12:52:00;;;;;;;1.15;1.02;;;26.90;53.90;;;;;;5044258;28;20105;-58
2021/07/27 12:54:27;;;;;;;1.13;1.08;;;26.90;53.30;;;;;;5044914;28;20799;-57
2021/07/27 12:56:54;;;;;;;1.35;1.27;;;27.00;53.40;;;;;;5046280;28;20049;-56
2021/07/27 12:59:22;;;;;;;1.10;1.10;;;27.00;53.40;;;;;;5045791;28;20067;-58
2021/07/27 13:01:50;;;;;;;1.40;1.30;;;27.00;53.40;;;;;;5044107;28;20068;-58
2021/07/27 13:04:17;;;;;;;1.00;1.00;;;27.00;53.40;;;;;;5043509;28;20530;-58
2021/07/27 13:06:45;;;;;;;0.90;0.90;;;27.00;53.40;;;;;;5043376;28;20038;-58
2021/07/27 13:09:12;;;;;;;0.55;0.55;;;27.00;53.50;;;;;;5047579;28;20045;-58
2021/07/27 13:11:40;;;;;;;0.85;0.85;;;27.00;53.50;;;;;;5045019;28;20649;-58